createdAt,value
2019-02-11T00:00:28.147Z,985.3
2019-02-11T00:01:40.338Z,985.3
2019-02-11T00:02:52.540Z,985.3
2019-02-11T00:04:04.725Z,985.4
2019-02-11T00:05:16.925Z,985.4
2019-02-11T00:06:29.127Z,985.4
2019-02-11T00:07:41.310Z,985.4
2019-02-11T00:08:53.502Z,985.5
2019-02-11T00:10:05.702Z,985.4
2019-02-11T00:11:17.892Z,985.5
2019-02-11T00:12:30.081Z,985.5
2019-02-11T00:13:42.274Z,985.6
2019-02-11T00:14:54.468Z,985.6
2019-02-11T00:16:06.665Z,985.6
2019-02-11T00:17:18.863Z,985.7
2019-02-11T00:18:31.053Z,985.6
2019-02-11T00:19:43.000Z,985.7
2019-02-11T00:20:55.440Z,985.7
2019-02-11T00:22:07.636Z,985.8
2019-02-11T00:23:19.082Z,985.7
2019-02-11T00:24:32.002Z,985.9
2019-02-11T00:25:44.217Z,985.8
2019-02-11T00:26:56.413Z,985.8
2019-02-11T00:28:08.621Z,985.9
2019-02-11T00:29:20.795Z,986
2019-02-11T00:30:32.993Z,986
2019-02-11T00:31:45.185Z,985.9
2019-02-11T00:32:57.380Z,986
2019-02-11T00:34:09.583Z,986
2019-02-11T00:35:21.767Z,986.1
2019-02-11T00:36:33.959Z,986
2019-02-11T00:37:46.157Z,986
2019-02-11T00:38:58.348Z,986.1
2019-02-11T00:40:10.551Z,986.2
2019-02-11T00:41:22.741Z,986.1
2019-02-11T00:42:34.932Z,986.1
2019-02-11T00:43:47.125Z,986.2
2019-02-11T00:44:59.316Z,986.2
2019-02-11T00:46:11.051Z,986.2
2019-02-11T00:47:23.712Z,986.2
2019-02-11T00:48:35.089Z,986.2
2019-02-11T00:49:48.096Z,986.3
2019-02-11T00:51:00.285Z,986.3
2019-02-11T00:52:12.480Z,986.3
2019-02-11T00:53:24.000Z,986.3
2019-02-11T00:54:36.869Z,986.4
2019-02-11T00:55:49.059Z,986.4
2019-02-11T00:57:01.026Z,986.4
2019-02-11T00:58:13.448Z,986.4
2019-02-11T00:59:25.640Z,986.4
2019-02-11T01:00:37.837Z,986.4
2019-02-11T01:01:50.031Z,986.5
2019-02-11T01:03:02.220Z,986.6
2019-02-11T01:04:14.421Z,986.6
2019-02-11T01:05:26.616Z,986.7
2019-02-11T01:06:38.813Z,986.7
2019-02-11T01:07:51.000Z,986.7
2019-02-11T01:09:03.019Z,986.7
2019-02-11T01:10:15.390Z,986.7
2019-02-11T01:11:27.585Z,986.7
2019-02-11T01:12:39.777Z,986.8
2019-02-11T01:13:51.096Z,986.8
2019-02-11T01:15:04.000Z,986.8
2019-02-11T01:16:16.370Z,986.8
2019-02-11T01:17:28.547Z,986.9
2019-02-11T01:18:40.000Z,986.9
2019-02-11T01:19:52.941Z,986.9
2019-02-11T01:21:05.131Z,986.9
2019-02-11T01:22:17.032Z,986.9
2019-02-11T01:23:29.520Z,987.1
2019-02-11T01:24:41.710Z,987.1
2019-02-11T01:25:53.904Z,987.1
2019-02-11T01:27:06.104Z,987.1
2019-02-11T01:28:18.303Z,987.1
2019-02-11T01:29:30.484Z,987.2
2019-02-11T01:30:42.696Z,987.2
2019-02-11T01:31:54.000Z,987.2
2019-02-11T01:33:07.000Z,987.2
2019-02-11T01:34:19.267Z,987.2
2019-02-11T01:35:31.456Z,987.2
2019-02-11T01:36:43.649Z,987.3
2019-02-11T01:39:08.031Z,987.4
2019-02-11T01:40:20.002Z,987.4
2019-02-11T01:41:32.422Z,987.4
2019-02-11T01:42:44.624Z,987.4
2019-02-11T01:43:56.000Z,987.4
2019-02-11T01:45:09.004Z,987.5
2019-02-11T01:46:21.199Z,987.5
2019-02-11T01:47:33.406Z,987.6
2019-02-11T01:48:45.593Z,987.6
2019-02-11T01:49:57.784Z,987.6
2019-02-11T01:51:09.972Z,987.6
2019-02-11T01:52:22.016Z,987.6
2019-02-11T01:53:34.000Z,987.7
2019-02-11T01:55:58.000Z,987.7
2019-02-11T01:57:10.942Z,987.7
2019-02-11T01:58:23.140Z,987.7
2019-02-11T01:59:35.000Z,987.8
2019-02-11T02:00:47.523Z,987.9
2019-02-11T02:01:59.723Z,987.9
2019-02-11T02:03:11.009Z,987.9
2019-02-11T02:04:24.112Z,987.9
2019-02-11T02:05:36.000Z,987.9
2019-02-11T02:06:48.491Z,987.9
2019-02-11T02:08:00.000Z,988
2019-02-11T02:09:12.886Z,988
2019-02-11T02:10:25.000Z,988
2019-02-11T02:11:37.267Z,988.1
2019-02-11T02:12:49.463Z,988.1
2019-02-11T02:14:01.656Z,988.1
2019-02-11T02:15:13.853Z,988.1
2019-02-11T02:16:26.046Z,988.1
2019-02-11T02:17:38.000Z,988.1
2019-02-11T02:18:50.989Z,988.1
2019-02-11T02:20:02.000Z,988.2
2019-02-11T02:21:14.824Z,988.2
2019-02-11T02:22:26.000Z,988.3
2019-02-11T02:23:39.209Z,988.3
2019-02-11T02:24:51.398Z,988.3
2019-02-11T02:26:03.596Z,988.3
2019-02-11T02:27:15.795Z,988.4
2019-02-11T02:28:27.097Z,988.3
2019-02-11T02:29:40.017Z,988.4
2019-02-11T02:30:52.378Z,988.5
2019-02-11T02:32:04.000Z,988.6
2019-02-11T02:33:16.760Z,988.6
2019-02-11T02:34:28.949Z,988.6
2019-02-11T02:35:41.145Z,988.6
2019-02-11T02:36:53.346Z,988.7
2019-02-11T02:38:05.534Z,988.7
2019-02-11T02:39:17.732Z,988.8
2019-02-11T02:40:29.092Z,988.9
2019-02-11T02:41:42.115Z,988.9
2019-02-11T02:42:54.308Z,988.9
2019-02-11T02:44:06.050Z,988.9
2019-02-11T02:45:18.697Z,988.9
2019-02-11T02:46:30.885Z,989.1
2019-02-11T02:47:43.079Z,989.1
2019-02-11T02:48:55.287Z,989
2019-02-11T02:50:07.476Z,989.1
2019-02-11T02:51:19.067Z,989.2
2019-02-11T02:52:31.857Z,989.1
2019-02-11T02:53:44.055Z,989.2
2019-02-11T02:54:56.249Z,989.2
2019-02-11T02:56:08.000Z,989.2
2019-02-11T02:57:20.638Z,989.3
2019-02-11T02:58:32.832Z,989.4
2019-02-11T02:59:45.025Z,989.4
2019-02-11T03:00:57.219Z,989.4
2019-02-11T03:02:09.411Z,989.5
2019-02-11T03:03:21.601Z,989.5
2019-02-11T03:04:33.795Z,989.5
2019-02-11T03:05:45.099Z,989.6
2019-02-11T03:06:58.187Z,989.6
2019-02-11T03:08:10.000Z,989.6
2019-02-11T03:09:22.575Z,989.6
2019-02-11T03:10:34.761Z,989.7
2019-02-11T03:11:46.964Z,989.7
2019-02-11T03:12:59.154Z,989.8
2019-02-11T03:14:11.344Z,989.8
2019-02-11T03:15:23.537Z,989.8
2019-02-11T03:16:35.736Z,989.8
2019-02-11T03:17:47.000Z,989.9
2019-02-11T03:19:00.126Z,989.9
2019-02-11T03:20:12.316Z,989.9
2019-02-11T03:21:24.509Z,990
2019-02-11T03:22:36.701Z,990
2019-02-11T03:23:48.912Z,990
2019-02-11T03:25:01.100Z,990.1
2019-02-11T03:26:13.285Z,990.2
2019-02-11T03:27:25.473Z,990.1
2019-02-11T03:28:37.676Z,990.3
2019-02-11T03:29:49.866Z,990.3
2019-02-11T03:31:02.066Z,990.3
2019-02-11T03:32:14.256Z,990.3
2019-02-11T03:33:26.452Z,990.3
2019-02-11T03:34:38.641Z,990.4
2019-02-11T03:35:50.835Z,990.4
2019-02-11T03:37:03.027Z,990.5
2019-02-11T03:38:15.226Z,990.5
2019-02-11T03:39:27.000Z,990.6
2019-02-11T03:40:39.650Z,990.6
2019-02-11T03:41:51.811Z,990.6
2019-02-11T03:43:04.003Z,990.7
2019-02-11T03:44:16.000Z,990.7
2019-02-11T03:45:28.039Z,990.7
2019-02-11T03:46:40.595Z,990.8
2019-02-11T03:47:52.779Z,990.8
2019-02-11T03:49:04.970Z,990.9
2019-02-11T03:50:17.160Z,991
2019-02-11T03:51:29.352Z,990.9
2019-02-11T03:52:41.577Z,991.1
2019-02-11T03:53:53.745Z,991.1
2019-02-11T03:55:05.937Z,991.1
2019-02-11T03:56:18.000Z,991.2
2019-02-11T03:57:30.328Z,991.2
2019-02-11T03:58:42.517Z,991.2
2019-02-11T03:59:54.718Z,991.3
2019-02-11T04:01:06.904Z,991.3
2019-02-11T04:02:19.099Z,991.4
2019-02-11T04:03:31.294Z,991.4
2019-02-11T04:04:43.049Z,991.4
2019-02-11T04:05:55.914Z,991.4
2019-02-11T04:07:07.875Z,991.5
2019-02-11T04:08:20.071Z,991.5
2019-02-11T04:09:32.261Z,991.6
2019-02-11T04:10:44.458Z,991.7
2019-02-11T04:11:56.652Z,991.7
2019-02-11T04:13:08.846Z,991.7
2019-02-11T04:14:21.042Z,991.8
2019-02-11T04:15:33.239Z,991.8
2019-02-11T04:16:45.433Z,991.8
2019-02-11T04:17:57.629Z,991.9
2019-02-11T04:19:09.812Z,991.8
2019-02-11T04:20:22.006Z,991.9
2019-02-11T04:21:34.202Z,991.9
2019-02-11T04:22:46.397Z,991.9
2019-02-11T04:23:58.606Z,992
2019-02-11T04:25:10.788Z,992
2019-02-11T04:26:22.978Z,992
2019-02-11T04:27:35.175Z,992
2019-02-11T04:28:47.395Z,992.1
2019-02-11T04:29:59.557Z,992.1
2019-02-11T04:31:11.752Z,992.1
2019-02-11T04:32:23.953Z,992.1
2019-02-11T04:33:36.000Z,992.2
2019-02-11T04:34:48.340Z,992.2
2019-02-11T04:36:00.530Z,992.3
2019-02-11T04:37:12.723Z,992.3
2019-02-11T04:38:24.920Z,992.3
2019-02-11T04:39:37.116Z,992.4
2019-02-11T04:40:49.309Z,992.4
2019-02-11T04:42:01.000Z,992.4
2019-02-11T04:43:13.692Z,992.4
2019-02-11T04:44:25.000Z,992.5
2019-02-11T04:45:38.087Z,992.5
2019-02-11T04:46:50.284Z,992.5
2019-02-11T04:48:02.467Z,992.6
2019-02-11T04:49:14.675Z,992.6
2019-02-11T04:50:26.861Z,992.6
2019-02-11T04:51:39.049Z,992.7
2019-02-11T04:52:51.026Z,992.8
2019-02-11T04:54:03.000Z,992.8
2019-02-11T04:55:15.631Z,992.8
2019-02-11T04:57:40.025Z,992.9
2019-02-11T04:58:52.217Z,992.9
2019-02-11T05:00:04.410Z,993
2019-02-11T05:01:16.600Z,993
2019-02-11T05:02:28.795Z,993
2019-02-11T05:03:40.994Z,993.1
2019-02-11T05:04:53.186Z,993.1
2019-02-11T05:06:05.385Z,993.2
2019-02-11T05:07:17.595Z,993.2
2019-02-11T05:08:29.000Z,993.2
2019-02-11T05:09:41.965Z,993.1
2019-02-11T05:10:54.160Z,993.1
2019-02-11T05:12:06.035Z,993.1
2019-02-11T05:13:18.547Z,993.2
2019-02-11T05:14:30.740Z,993.2
2019-02-11T05:15:42.937Z,993.2
2019-02-11T05:16:55.124Z,993.2
2019-02-11T05:18:07.323Z,993.3
2019-02-11T05:19:19.510Z,993.2
2019-02-11T05:20:31.707Z,993.3
2019-02-11T05:21:43.899Z,993.3
2019-02-11T05:22:56.096Z,993.3
2019-02-11T05:24:08.000Z,993.3
2019-02-11T05:25:20.496Z,993.5
2019-02-11T05:26:32.677Z,993.5
2019-02-11T05:27:44.874Z,993.5
2019-02-11T05:28:57.067Z,993.5
2019-02-11T05:30:09.256Z,993.6
2019-02-11T05:31:21.454Z,993.6
2019-02-11T05:32:33.000Z,993.6
2019-02-11T05:33:45.841Z,993.6
2019-02-11T05:34:58.039Z,993.7
2019-02-11T05:36:10.228Z,993.7
2019-02-11T05:37:22.427Z,993.7
2019-02-11T05:38:34.615Z,993.7
2019-02-11T05:39:46.819Z,993.8
2019-02-11T05:40:59.005Z,993.8
2019-02-11T05:42:11.000Z,993.8
2019-02-11T05:43:23.396Z,993.8
2019-02-11T05:44:35.588Z,993.8
2019-02-11T05:45:47.787Z,993.9
2019-02-11T05:46:59.975Z,993.9
2019-02-11T05:48:12.177Z,994
2019-02-11T05:49:24.364Z,994
2019-02-11T05:50:36.562Z,994
2019-02-11T05:51:48.000Z,994
2019-02-11T05:53:00.094Z,994.1
2019-02-11T05:54:13.000Z,994.1
2019-02-11T05:55:25.342Z,994.1
2019-02-11T05:56:37.532Z,994.2
2019-02-11T05:57:49.724Z,994.2
2019-02-11T05:59:01.918Z,994.3
2019-02-11T06:00:14.111Z,994.2
2019-02-11T06:01:26.309Z,994.3
2019-02-11T06:02:38.496Z,994.3
2019-02-11T06:03:50.699Z,994.4
2019-02-11T06:05:02.008Z,994.4
2019-02-11T06:06:15.077Z,994.4
2019-02-11T06:07:27.027Z,994.4
2019-02-11T06:08:39.467Z,994.4
2019-02-11T06:09:51.066Z,994.4
2019-02-11T06:11:03.863Z,994.4
2019-02-11T06:12:16.066Z,994.5
2019-02-11T06:13:28.249Z,994.6
2019-02-11T06:14:40.561Z,994.6
2019-02-11T06:15:52.755Z,994.7
2019-02-11T06:17:04.095Z,994.7
2019-02-11T06:18:17.000Z,994.7
2019-02-11T06:19:29.336Z,994.8
2019-02-11T06:20:41.531Z,994.9
2019-02-11T06:21:53.727Z,994.8
2019-02-11T06:23:05.919Z,994.9
2019-02-11T06:24:18.118Z,994.9
2019-02-11T06:25:30.308Z,994.9
2019-02-11T06:26:42.504Z,994.9
2019-02-11T06:27:54.006Z,995
2019-02-11T06:29:06.894Z,995.1
2019-02-11T06:30:19.089Z,995.1
2019-02-11T06:31:31.306Z,995
2019-02-11T06:32:43.470Z,995.1
2019-02-11T06:33:55.667Z,995.1
2019-02-11T06:35:07.866Z,995.1
2019-02-11T06:36:20.059Z,995.2
2019-02-11T06:37:32.251Z,995.2
2019-02-11T06:38:44.443Z,995.2
2019-02-11T06:39:56.000Z,995.2
2019-02-11T06:41:08.839Z,995.2
2019-02-11T06:42:21.027Z,995.2
2019-02-11T06:43:33.221Z,995.3
2019-02-11T06:44:45.416Z,995.3
2019-02-11T06:45:57.061Z,995.3
2019-02-11T06:47:09.806Z,995.4
2019-02-11T06:48:21.999Z,995.4
2019-02-11T06:49:34.018Z,995.5
2019-02-11T06:50:46.386Z,995.6
2019-02-11T06:51:58.580Z,995.5
2019-02-11T06:53:10.077Z,995.6
2019-02-11T06:54:22.000Z,995.6
2019-02-11T06:55:35.160Z,995.6
2019-02-11T06:56:47.035Z,995.7
2019-02-11T06:57:59.560Z,995.7
2019-02-11T06:59:11.746Z,995.8
2019-02-11T07:00:23.934Z,995.8
2019-02-11T07:01:36.125Z,995.9
2019-02-11T07:02:48.329Z,995.9
2019-02-11T07:04:00.524Z,995.9
2019-02-11T07:05:12.718Z,995.9
2019-02-11T07:06:24.903Z,995.9
2019-02-11T07:07:37.103Z,995.9
2019-02-11T07:10:01.492Z,996
2019-02-11T07:11:13.677Z,996
2019-02-11T07:12:25.000Z,996
2019-02-11T07:13:38.072Z,996
2019-02-11T07:14:50.002Z,996
2019-02-11T07:16:02.461Z,996
2019-02-11T07:17:14.655Z,996.2
2019-02-11T07:18:26.850Z,996.1
2019-02-11T07:19:39.004Z,996.1
2019-02-11T07:22:03.433Z,996.2
2019-02-11T07:23:15.623Z,996.2
2019-02-11T07:24:27.081Z,996.3
2019-02-11T07:25:40.000Z,996.2
2019-02-11T07:26:52.206Z,996.3
2019-02-11T07:28:04.401Z,996.4
2019-02-11T07:29:16.592Z,996.5
2019-02-11T07:30:28.000Z,996.5
2019-02-11T07:31:40.996Z,996.5
2019-02-11T07:32:53.175Z,996.4
2019-02-11T07:34:05.373Z,996.6
2019-02-11T07:35:17.568Z,996.5
2019-02-11T07:36:29.076Z,996.6
2019-02-11T07:37:41.955Z,996.7
2019-02-11T07:38:54.147Z,996.7
2019-02-11T07:40:06.035Z,996.7
2019-02-11T07:41:18.543Z,996.7
2019-02-11T07:42:30.000Z,996.7
2019-02-11T07:43:42.934Z,996.8
2019-02-11T07:46:07.032Z,996.9
2019-02-11T07:47:19.517Z,996.8
2019-02-11T07:48:31.718Z,996.8
2019-02-11T07:49:43.906Z,996.9
2019-02-11T07:52:08.000Z,996.9
2019-02-11T07:53:20.492Z,996.9
2019-02-11T07:54:32.000Z,996.9
2019-02-11T07:55:44.876Z,996.9
2019-02-11T07:56:57.000Z,996.9
2019-02-11T07:58:09.267Z,996.9
2019-02-11T07:59:21.000Z,997
2019-02-11T08:00:33.657Z,997
2019-02-11T08:01:45.855Z,997
2019-02-11T08:02:58.049Z,997
2019-02-11T08:04:10.000Z,997.1
2019-02-11T08:05:22.440Z,997
2019-02-11T08:06:34.638Z,997.1
2019-02-11T08:07:46.836Z,997
2019-02-11T08:08:59.031Z,997.1
2019-02-11T08:10:11.227Z,997.1
2019-02-11T08:11:23.415Z,997.1
2019-02-11T08:12:35.620Z,997.1
2019-02-11T08:13:47.812Z,997.2
2019-02-11T08:15:00.001Z,997.1
2019-02-11T08:16:12.209Z,997.1
2019-02-11T08:17:24.000Z,997.1
2019-02-11T08:18:36.599Z,997.1
2019-02-11T08:19:48.078Z,997.2
2019-02-11T08:21:00.985Z,997.2
2019-02-11T08:22:13.182Z,997.2
2019-02-11T08:23:25.378Z,997.3
2019-02-11T08:24:37.568Z,997.3
2019-02-11T08:25:49.077Z,997.3
2019-02-11T08:27:01.970Z,997.4
2019-02-11T08:28:14.159Z,997.4
2019-02-11T08:29:26.035Z,997.4
2019-02-11T08:30:38.549Z,997.4
2019-02-11T08:31:50.744Z,997.5
2019-02-11T08:33:02.940Z,997.5
2019-02-11T08:34:15.143Z,997.5
2019-02-11T08:35:27.341Z,997.6
2019-02-11T08:36:39.527Z,997.6
2019-02-11T08:37:51.724Z,997.7
2019-02-11T08:39:03.914Z,997.8
2019-02-11T08:40:16.107Z,997.8
2019-02-11T08:41:28.428Z,997.8
2019-02-11T08:42:40.632Z,997.8
2019-02-11T08:43:52.824Z,997.9
2019-02-11T08:45:05.018Z,997.8
2019-02-11T08:46:17.220Z,997.8
2019-02-11T08:47:29.405Z,997.9
2019-02-11T08:48:41.611Z,997.9
2019-02-11T08:49:53.795Z,997.9
2019-02-11T08:51:05.992Z,997.9
2019-02-11T08:52:18.192Z,997.9
2019-02-11T08:53:30.385Z,998
2019-02-11T08:54:42.576Z,998
2019-02-11T08:55:54.779Z,998.1
2019-02-11T08:57:06.990Z,998.1
2019-02-11T08:58:19.167Z,998.1
2019-02-11T08:59:31.365Z,998.1
2019-02-11T09:00:43.556Z,998.2
2019-02-11T09:01:55.747Z,998.2
2019-02-11T09:03:07.095Z,998.2
2019-02-11T09:04:20.145Z,998.2
2019-02-11T09:05:32.336Z,998.2
2019-02-11T09:06:44.530Z,998.3
2019-02-11T09:07:56.730Z,998.3
2019-02-11T09:09:08.927Z,998.4
2019-02-11T09:10:21.121Z,998.4
2019-02-11T09:11:33.316Z,998.4
2019-02-11T09:12:45.506Z,998.5
2019-02-11T09:13:57.000Z,998.5
2019-02-11T09:15:09.901Z,998.5
2019-02-11T09:16:22.100Z,998.6
2019-02-11T09:17:34.293Z,998.6
2019-02-11T09:18:46.479Z,998.6
2019-02-11T09:19:58.682Z,998.7
2019-02-11T09:21:10.876Z,998.8
2019-02-11T09:22:23.071Z,998.9
2019-02-11T09:23:35.261Z,999
2019-02-11T09:24:47.491Z,999
2019-02-11T09:25:59.667Z,999
2019-02-11T09:27:11.856Z,999
2019-02-11T09:28:24.043Z,999
2019-02-11T09:29:36.241Z,999.1
2019-02-11T09:30:48.437Z,999.1
2019-02-11T09:32:00.639Z,999.2
2019-02-11T09:33:12.084Z,999.3
2019-02-11T09:34:25.022Z,999.2
2019-02-11T09:35:37.234Z,999.3
2019-02-11T09:36:49.425Z,999.3
2019-02-11T09:38:01.624Z,999.3
2019-02-11T09:39:13.802Z,999.3
2019-02-11T09:40:26.003Z,999.3
2019-02-11T09:41:38.202Z,999.4
2019-02-11T09:42:50.393Z,999.4
2019-02-11T09:44:02.059Z,999.3
2019-02-11T09:46:26.985Z,999.4
2019-02-11T09:47:39.186Z,999.4
2019-02-11T09:48:51.371Z,999.5
2019-02-11T09:50:03.565Z,999.4
2019-02-11T09:51:15.763Z,999.5
2019-02-11T09:52:27.957Z,999.5
2019-02-11T09:53:40.015Z,999.4
2019-02-11T09:54:52.035Z,999.6
2019-02-11T09:56:04.540Z,999.6
2019-02-11T09:57:16.000Z,999.6
2019-02-11T09:58:28.928Z,999.6
2019-02-11T09:59:41.137Z,999.5
2019-02-11T10:00:53.328Z,999.5
2019-02-11T10:02:05.522Z,999.7
2019-02-11T10:03:17.718Z,999.7
2019-02-11T10:04:29.906Z,999.7
2019-02-11T10:05:42.151Z,999.7
2019-02-11T10:06:54.301Z,999.8
2019-02-11T10:08:06.512Z,999.7
2019-02-11T10:09:18.000Z,999.8
2019-02-11T10:10:30.881Z,999.8
2019-02-11T10:11:43.078Z,999.9
2019-02-11T10:12:55.026Z,999.9
2019-02-11T10:14:07.471Z,999.8
2019-02-11T10:15:19.661Z,999.9
2019-02-11T10:16:31.865Z,999.9
2019-02-11T10:17:44.063Z,999.8
2019-02-11T10:18:56.249Z,999.8
2019-02-11T10:20:08.452Z,999.8
2019-02-11T10:21:20.638Z,1000
2019-02-11T10:22:32.835Z,999.9
2019-02-11T10:23:45.034Z,1000
2019-02-11T10:24:57.230Z,1000.1
2019-02-11T10:26:09.435Z,1000.1
2019-02-11T10:27:21.061Z,1000.1
2019-02-11T10:28:33.812Z,1000.1
2019-02-11T10:29:46.013Z,1000.2
2019-02-11T10:30:58.210Z,1000.2
2019-02-11T10:32:10.405Z,1000.1
2019-02-11T10:33:22.600Z,1000.3
2019-02-11T10:34:34.794Z,1000.2
2019-02-11T10:35:46.982Z,1000.3
2019-02-11T10:36:59.179Z,1000.4
2019-02-11T10:38:11.376Z,1000.2
2019-02-11T10:39:23.569Z,1000.3
2019-02-11T10:40:35.786Z,1000.1
2019-02-11T10:41:47.965Z,1000.2
2019-02-11T10:43:00.157Z,1000.2
2019-02-11T10:44:12.349Z,1000.3
2019-02-11T10:45:24.054Z,1000.3
2019-02-11T10:46:36.075Z,1000.3
2019-02-11T10:47:48.940Z,1000.5
2019-02-11T10:49:01.140Z,1000.4
2019-02-11T10:50:13.341Z,1000.4
2019-02-11T10:51:25.533Z,1000.4
2019-02-11T10:52:37.727Z,1000.4
2019-02-11T10:53:49.925Z,1000.4
2019-02-11T10:55:02.117Z,1000.4
2019-02-11T10:56:14.000Z,1000.4
2019-02-11T10:57:26.504Z,1000.3
2019-02-11T10:58:38.700Z,1000.4
2019-02-11T10:59:50.892Z,1000.5
2019-02-11T11:01:03.085Z,1000.5
2019-02-11T11:02:15.289Z,1000.5
2019-02-11T11:03:27.487Z,1000.5
2019-02-11T11:04:39.067Z,1000.5
2019-02-11T11:05:51.870Z,1000.5
2019-02-11T11:07:04.069Z,1000.6
2019-02-11T11:08:16.266Z,1000.6
2019-02-11T11:09:28.455Z,1000.6
2019-02-11T11:10:40.656Z,1000.7
2019-02-11T11:11:52.848Z,1000.7
2019-02-11T11:13:05.042Z,1000.7
2019-02-11T11:14:17.237Z,1000.8
2019-02-11T11:15:29.433Z,1000.8
2019-02-11T11:16:41.634Z,1000.7
2019-02-11T11:17:53.826Z,1000.9
2019-02-11T11:19:06.018Z,1000.9
2019-02-11T11:20:18.021Z,1001
2019-02-11T11:21:30.408Z,1000.9
2019-02-11T11:22:42.608Z,1001
2019-02-11T11:23:54.080Z,1001
2019-02-11T11:25:06.000Z,1001
2019-02-11T11:26:19.190Z,1001
2019-02-11T11:27:31.404Z,1001
2019-02-11T11:28:43.577Z,1001
2019-02-11T11:29:55.773Z,1001
2019-02-11T11:31:07.970Z,1001.1
2019-02-11T11:32:20.000Z,1001.1
2019-02-11T11:33:32.364Z,1001.1
2019-02-11T11:34:44.557Z,1001.2
2019-02-11T11:35:56.747Z,1001.1
2019-02-11T11:37:08.094Z,1001.1
2019-02-11T11:38:21.145Z,1001.1
2019-02-11T11:39:33.000Z,1001.2
2019-02-11T11:40:45.535Z,1001.2
2019-02-11T11:41:57.073Z,1001.2
2019-02-11T11:43:09.928Z,1001.3
2019-02-11T11:44:22.123Z,1001.3
2019-02-11T11:46:46.512Z,1001.3
2019-02-11T11:47:58.709Z,1001.3
2019-02-11T11:49:10.901Z,1001.4
2019-02-11T11:50:23.099Z,1001.4
2019-02-11T11:51:35.286Z,1001.4
2019-02-11T11:52:47.487Z,1001.4
2019-02-11T11:53:59.690Z,1001.4
2019-02-11T11:55:11.087Z,1001.4
2019-02-11T11:56:24.073Z,1001.5
2019-02-11T11:57:36.268Z,1001.6
2019-02-11T11:58:48.468Z,1001.5
2019-02-11T12:00:00.653Z,1001.6
2019-02-11T12:01:12.085Z,1001.6
2019-02-11T12:02:25.053Z,1001.6
2019-02-11T12:03:37.244Z,1001.6
2019-02-11T12:04:49.441Z,1001.7
2019-02-11T12:06:01.647Z,1001.6
2019-02-11T12:07:13.836Z,1001.7
2019-02-11T12:08:26.028Z,1001.6
2019-02-11T12:09:38.000Z,1001.7
2019-02-11T12:10:50.424Z,1001.9
2019-02-11T12:12:02.612Z,1001.8
2019-02-11T12:13:14.000Z,1001.8
2019-02-11T12:14:26.000Z,1001.9
2019-02-11T12:15:39.000Z,1001.8
2019-02-11T12:16:51.404Z,1001.9
2019-02-11T12:18:03.593Z,1002
2019-02-11T12:19:15.788Z,1002
2019-02-11T12:20:27.984Z,1002
2019-02-11T12:21:40.000Z,1001.9
2019-02-11T12:22:52.372Z,1002.1
2019-02-11T12:24:04.579Z,1002.1
2019-02-11T12:25:16.765Z,1002.1
2019-02-11T12:26:28.956Z,1002.1
2019-02-11T12:27:41.159Z,1002.2
2019-02-11T12:28:53.353Z,1002.1
2019-02-11T12:30:05.000Z,1002.1
2019-02-11T12:31:17.074Z,1002.2
2019-02-11T12:32:29.094Z,1002.3
2019-02-11T12:33:42.138Z,1002.3
2019-02-11T12:34:54.331Z,1002.4
2019-02-11T12:36:06.525Z,1002.3
2019-02-11T12:37:18.000Z,1002.3
2019-02-11T12:38:30.916Z,1002.4
2019-02-11T12:39:43.113Z,1002.3
2019-02-11T12:40:55.000Z,1002.4
2019-02-11T12:42:07.504Z,1002.4
2019-02-11T12:43:19.000Z,1002.5
2019-02-11T12:44:31.000Z,1002.4
2019-02-11T12:45:44.009Z,1002.4
2019-02-11T12:46:56.622Z,1002.5
2019-02-11T12:48:08.485Z,1002.5
2019-02-11T12:49:20.685Z,1002.5
2019-02-11T12:50:32.000Z,1002.5
2019-02-11T12:51:45.066Z,1002.6
2019-02-11T12:52:57.027Z,1002.5
2019-02-11T12:54:09.046Z,1002.6
2019-02-11T12:55:21.664Z,1002.6
2019-02-11T12:56:33.855Z,1002.6
2019-02-11T12:57:46.004Z,1002.6
2019-02-11T12:58:58.243Z,1002.6
2019-02-11T13:00:10.446Z,1002.6
2019-02-11T13:01:22.644Z,1002.7
2019-02-11T13:02:34.834Z,1002.7
2019-02-11T13:03:47.028Z,1002.8
2019-02-11T13:04:59.226Z,1002.7
2019-02-11T13:06:11.421Z,1002.8
2019-02-11T13:07:23.000Z,1002.9
2019-02-11T13:08:35.814Z,1002.8
2019-02-11T13:09:48.012Z,1002.9
2019-02-11T13:11:00.204Z,1002.9
2019-02-11T13:12:12.399Z,1002.9
2019-02-11T13:13:24.595Z,1003
2019-02-11T13:14:36.795Z,1003
2019-02-11T13:15:48.984Z,1003
2019-02-11T13:17:01.187Z,1003.1
2019-02-11T13:18:13.378Z,1003
2019-02-11T13:19:25.000Z,1003.1
2019-02-11T13:20:37.772Z,1003.1
2019-02-11T13:21:49.000Z,1003.2
2019-02-11T13:23:02.017Z,1003.2
2019-02-11T13:24:14.354Z,1003.2
2019-02-11T13:25:26.554Z,1003.2
2019-02-11T13:26:38.754Z,1003.2
2019-02-11T13:27:50.947Z,1003.2
2019-02-11T13:29:03.155Z,1003.3
2019-02-11T13:30:15.333Z,1003.3
2019-02-11T13:31:27.529Z,1003.4
2019-02-11T13:32:39.732Z,1003.4
2019-02-11T13:33:51.000Z,1003.3
2019-02-11T13:35:04.124Z,1003.4
2019-02-11T13:36:16.315Z,1003.5
2019-02-11T13:37:28.513Z,1003.5
2019-02-11T13:38:40.715Z,1003.5
2019-02-11T13:39:52.009Z,1003.5
2019-02-11T13:41:05.097Z,1003.6
2019-02-11T13:42:17.297Z,1003.6
2019-02-11T13:43:29.498Z,1003.6
2019-02-11T13:44:41.720Z,1003.6
2019-02-11T13:45:53.884Z,1003.7
2019-02-11T13:47:06.083Z,1003.7
2019-02-11T13:48:18.274Z,1003.8
2019-02-11T13:49:30.476Z,1003.7
2019-02-11T13:50:42.672Z,1003.8
2019-02-11T13:51:54.871Z,1003.9
2019-02-11T13:53:07.061Z,1003.9
2019-02-11T13:54:19.260Z,1003.9
2019-02-11T13:55:31.493Z,1004
2019-02-11T13:56:43.653Z,1003.9
2019-02-11T13:57:55.842Z,1003.9
2019-02-11T13:59:08.003Z,1004.1
2019-02-11T14:00:20.235Z,1004.1
2019-02-11T14:01:32.438Z,1004.1
2019-02-11T14:02:44.631Z,1004.1
2019-02-11T14:03:56.825Z,1004.2
2019-02-11T14:05:09.001Z,1004.2
2019-02-11T14:06:21.209Z,1004.4
2019-02-11T14:07:33.000Z,1004.3
2019-02-11T14:08:45.603Z,1004.5
2019-02-11T14:09:57.816Z,1004.5
2019-02-11T14:11:09.993Z,1004.6
2019-02-11T14:12:22.192Z,1004.5
2019-02-11T14:13:34.391Z,1004.5
2019-02-11T14:14:46.589Z,1004.5
2019-02-11T14:15:58.785Z,1004.6
2019-02-11T14:17:10.986Z,1004.6
2019-02-11T14:18:23.000Z,1004.6
2019-02-11T14:19:35.369Z,1004.6
2019-02-11T14:20:47.570Z,1004.6
2019-02-11T14:21:59.763Z,1004.7
2019-02-11T14:23:11.955Z,1004.8
2019-02-11T14:24:24.015Z,1004.7
2019-02-11T14:25:36.352Z,1004.7
2019-02-11T14:26:48.546Z,1005.2
2019-02-11T14:28:00.761Z,1004.9
2019-02-11T14:29:12.937Z,1005
2019-02-11T14:30:25.132Z,1005.2
2019-02-11T14:31:37.000Z,1005
2019-02-11T14:32:48.000Z,1005
2019-02-11T14:34:01.714Z,1005
2019-02-11T14:35:13.922Z,1005.1
2019-02-11T14:36:26.110Z,1005.4
2019-02-11T14:37:38.367Z,1005.2
2019-02-11T14:38:50.503Z,1005.2
2019-02-11T14:40:02.006Z,1005.2
2019-02-11T14:41:14.893Z,1005.2
2019-02-11T14:42:27.089Z,1005.3
2019-02-11T14:43:39.279Z,1005.3
2019-02-11T14:44:51.476Z,1005.3
2019-02-11T14:46:03.674Z,1005.3
2019-02-11T14:47:15.872Z,1005.3
2019-02-11T14:48:28.120Z,1005.4
2019-02-11T14:49:40.267Z,1005.5
2019-02-11T14:50:52.462Z,1005.4
2019-02-11T14:52:04.653Z,1005.5
2019-02-11T14:53:16.850Z,1005.4
2019-02-11T14:54:29.000Z,1005.5
2019-02-11T14:55:41.245Z,1005.5
2019-02-11T14:56:53.432Z,1005.5
2019-02-11T14:58:05.627Z,1005.6
2019-02-11T14:59:17.827Z,1005.6
2019-02-11T15:00:30.028Z,1005.7
2019-02-11T15:01:42.217Z,1005.6
2019-02-11T15:02:54.422Z,1005.7
2019-02-11T15:04:06.607Z,1005.8
2019-02-11T15:05:18.802Z,1005.7
2019-02-11T15:06:31.004Z,1005.7
2019-02-11T15:07:43.196Z,1005.7
2019-02-11T15:08:55.392Z,1005.7
2019-02-11T15:10:07.589Z,1005.7
2019-02-11T15:11:19.781Z,1005.7
2019-02-11T15:12:31.988Z,1005.7
2019-02-11T15:13:44.178Z,1005.8
2019-02-11T15:14:56.383Z,1005.8
2019-02-11T15:16:08.000Z,1005.8
2019-02-11T15:17:20.762Z,1005.8
2019-02-11T15:18:32.955Z,1005.9
2019-02-11T15:19:45.000Z,1005.9
2019-02-11T15:20:57.352Z,1005.9
2019-02-11T15:22:09.556Z,1006
2019-02-11T15:23:21.745Z,1006
2019-02-11T15:24:33.936Z,1006
2019-02-11T15:25:46.013Z,1006
2019-02-11T15:26:58.328Z,1006.1
2019-02-11T15:28:10.525Z,1006.1
2019-02-11T15:29:22.721Z,1006.2
2019-02-11T15:30:34.911Z,1006.3
2019-02-11T15:31:47.011Z,1006.3
2019-02-11T15:32:59.030Z,1006.3
2019-02-11T15:34:11.049Z,1006.3
2019-02-11T15:35:23.699Z,1006.4